sensor_id;sensor_type;location;lat;lon;timestamp;P1;durP1;ratioP1;P2;durP2;ratioP2
27670;SDS011;15077;49.704;9.908;2023-06-14T00:01:55;3.30;;;2.47;;
27670;SDS011;15077;49.704;9.908;2023-06-14T00:04:21;3.00;;;2.20;;
27670;SDS011;15077;49.704;9.908;2023-06-14T00:06:50;3.35;;;2.45;;
27670;SDS011;15077;49.704;9.908;2023-06-14T00:09:16;2.72;;;2.25;;
27670;SDS011;15077;49.704;9.908;2023-06-14T00:11:44;4.22;;;2.60;;
27670;SDS011;15077;49.704;9.908;2023-06-14T00:14:12;4.22;;;2.50;;
27670;SDS011;15077;49.704;9.908;2023-06-14T00:16:39;2.80;;;2.40;;
27670;SDS011;15077;49.704;9.908;2023-06-14T00:19:07;4.53;;;3.00;;
27670;SDS011;15077;49.704;9.908;2023-06-14T00:21:35;2.58;;;2.25;;
27670;SDS011;15077;49.704;9.908;2023-06-14T00:24:02;3.75;;;2.70;;
27670;SDS011;15077;49.704;9.908;2023-06-14T00:26:29;3.22;;;2.80;;
27670;SDS011;15077;49.704;9.908;2023-06-14T00:28:55;4.03;;;2.40;;
27670;SDS011;15077;49.704;9.908;2023-06-14T00:31:23;2.88;;;2.28;;
27670;SDS011;15077;49.704;9.908;2023-06-14T00:33:49;2.75;;;2.40;;
27670;SDS011;15077;49.704;9.908;2023-06-14T00:36:15;3.50;;;2.65;;
27670;SDS011;15077;49.704;9.908;2023-06-14T00:38:41;2.72;;;2.40;;
27670;SDS011;15077;49.704;9.908;2023-06-14T00:41:07;3.00;;;2.20;;
27670;SDS011;15077;49.704;9.908;2023-06-14T00:43:33;3.63;;;2.67;;
27670;SDS011;15077;49.704;9.908;2023-06-14T00:46:00;3.30;;;2.53;;
27670;SDS011;15077;49.704;9.908;2023-06-14T00:48:26;3.03;;;2.25;;
27670;SDS011;15077;49.704;9.908;2023-06-14T00:50:53;3.65;;;2.50;;
27670;SDS011;15077;49.704;9.908;2023-06-14T00:53:20;2.53;;;2.30;;
27670;SDS011;15077;49.704;9.908;2023-06-14T00:55:47;4.03;;;2.70;;
27670;SDS011;15077;49.704;9.908;2023-06-14T00:58:14;3.03;;;2.25;;
27670;SDS011;15077;49.704;9.908;2023-06-14T01:00:42;3.28;;;2.28;;
27670;SDS011;15077;49.704;9.908;2023-06-14T01:03:10;3.47;;;2.55;;
27670;SDS011;15077;49.704;9.908;2023-06-14T01:05:39;3.08;;;2.38;;
27670;SDS011;15077;49.704;9.908;2023-06-14T01:08:14;3.90;;;2.00;;
27670;SDS011;15077;49.704;9.908;2023-06-14T01:11:10;3.75;;;2.08;;
27670;SDS011;15077;49.704;9.908;2023-06-14T01:13:47;2.78;;;1.92;;
27670;SDS011;15077;49.704;9.908;2023-06-14T01:16:17;3.00;;;2.28;;
27670;SDS011;15077;49.704;9.908;2023-06-14T01:18:45;5.10;;;3.20;;
27670;SDS011;15077;49.704;9.908;2023-06-14T01:21:24;2.85;;;2.47;;
27670;SDS011;15077;49.704;9.908;2023-06-14T01:23:51;3.33;;;2.20;;
27670;SDS011;15077;49.704;9.908;2023-06-14T01:26:22;3.47;;;2.50;;
27670;SDS011;15077;49.704;9.908;2023-06-14T01:28:54;2.33;;;2.00;;
27670;SDS011;15077;49.704;9.908;2023-06-14T01:31:25;2.95;;;2.13;;
27670;SDS011;15077;49.704;9.908;2023-06-14T01:33:55;2.90;;;2.40;;
27670;SDS011;15077;49.704;9.908;2023-06-14T01:36:23;2.40;;;2.00;;
27670;SDS011;15077;49.704;9.908;2023-06-14T01:38:54;3.28;;;2.38;;
27670;SDS011;15077;49.704;9.908;2023-06-14T01:41:24;3.33;;;2.30;;
27670;SDS011;15077;49.704;9.908;2023-06-14T01:43:56;2.95;;;2.45;;
27670;SDS011;15077;49.704;9.908;2023-06-14T01:46:24;2.60;;;1.95;;
27670;SDS011;15077;49.704;9.908;2023-06-14T01:48:51;2.22;;;1.70;;
27670;SDS011;15077;49.704;9.908;2023-06-14T01:51:17;3.58;;;2.42;;
27670;SDS011;15077;49.704;9.908;2023-06-14T01:53:43;3.53;;;2.47;;
27670;SDS011;15077;49.704;9.908;2023-06-14T01:56:11;3.17;;;2.45;;
27670;SDS011;15077;49.704;9.908;2023-06-14T01:58:38;4.25;;;2.58;;
27670;SDS011;15077;49.704;9.908;2023-06-14T02:01:05;4.07;;;2.60;;
27670;SDS011;15077;49.704;9.908;2023-06-14T02:03:32;3.83;;;2.58;;
27670;SDS011;15077;49.704;9.908;2023-06-14T02:05:58;3.80;;;2.30;;
27670;SDS011;15077;49.704;9.908;2023-06-14T02:08:24;2.50;;;2.13;;
27670;SDS011;15077;49.704;9.908;2023-06-14T02:10:51;3.63;;;2.70;;
27670;SDS011;15077;49.704;9.908;2023-06-14T02:13:18;2.83;;;2.40;;
27670;SDS011;15077;49.704;9.908;2023-06-14T02:15:43;3.70;;;2.58;;
27670;SDS011;15077;49.704;9.908;2023-06-14T02:18:10;3.63;;;2.90;;
27670;SDS011;15077;49.704;9.908;2023-06-14T02:20:36;4.07;;;2.40;;
27670;SDS011;15077;49.704;9.908;2023-06-14T02:23:02;3.33;;;2.63;;
27670;SDS011;15077;49.704;9.908;2023-06-14T02:25:28;3.00;;;2.38;;
27670;SDS011;15077;49.704;9.908;2023-06-14T02:27:54;3.45;;;2.45;;
27670;SDS011;15077;49.704;9.908;2023-06-14T02:30:20;2.85;;;2.45;;
27670;SDS011;15077;49.704;9.908;2023-06-14T02:32:47;3.55;;;2.47;;
27670;SDS011;15077;49.704;9.908;2023-06-14T02:35:13;3.10;;;2.42;;
27670;SDS011;15077;49.704;9.908;2023-06-14T02:37:39;4.07;;;2.75;;
27670;SDS011;15077;49.704;9.908;2023-06-14T02:40:06;2.83;;;2.53;;
27670;SDS011;15077;49.704;9.908;2023-06-14T02:42:34;2.75;;;2.50;;
27670;SDS011;15077;49.704;9.908;2023-06-14T02:44:59;3.20;;;2.25;;
27670;SDS011;15077;49.704;9.908;2023-06-14T02:47:25;2.80;;;2.53;;
27670;SDS011;15077;49.704;9.908;2023-06-14T02:49:51;2.97;;;2.47;;
27670;SDS011;15077;49.704;9.908;2023-06-14T02:52:17;3.35;;;2.88;;
27670;SDS011;15077;49.704;9.908;2023-06-14T02:54:43;3.53;;;2.80;;
27670;SDS011;15077;49.704;9.908;2023-06-14T02:57:09;4.13;;;2.63;;
27670;SDS011;15077;49.704;9.908;2023-06-14T02:59:35;3.00;;;2.50;;
27670;SDS011;15077;49.704;9.908;2023-06-14T03:02:01;3.35;;;2.38;;
27670;SDS011;15077;49.704;9.908;2023-06-14T03:04:28;2.65;;;2.40;;
27670;SDS011;15077;49.704;9.908;2023-06-14T03:06:54;3.67;;;2.60;;
27670;SDS011;15077;49.704;9.908;2023-06-14T03:09:21;2.85;;;2.45;;
27670;SDS011;15077;49.704;9.908;2023-06-14T03:11:47;4.53;;;3.35;;
27670;SDS011;15077;49.704;9.908;2023-06-14T03:14:12;3.85;;;2.90;;
27670;SDS011;15077;49.704;9.908;2023-06-14T03:16:38;3.35;;;2.63;;
27670;SDS011;15077;49.704;9.908;2023-06-14T03:19:06;2.95;;;2.60;;
27670;SDS011;15077;49.704;9.908;2023-06-14T03:21:32;3.35;;;2.53;;
27670;SDS011;15077;49.704;9.908;2023-06-14T03:23:59;4.57;;;2.38;;
27670;SDS011;15077;49.704;9.908;2023-06-14T03:26:27;3.60;;;2.38;;
27670;SDS011;15077;49.704;9.908;2023-06-14T03:28:55;3.08;;;2.42;;
27670;SDS011;15077;49.704;9.908;2023-06-14T03:31:21;3.35;;;2.55;;
27670;SDS011;15077;49.704;9.908;2023-06-14T03:33:48;2.80;;;2.47;;
27670;SDS011;15077;49.704;9.908;2023-06-14T03:36:14;3.13;;;2.42;;
27670;SDS011;15077;49.704;9.908;2023-06-14T03:38:40;2.70;;;2.38;;
27670;SDS011;15077;49.704;9.908;2023-06-14T03:41:06;2.75;;;2.20;;
27670;SDS011;15077;49.704;9.908;2023-06-14T03:43:32;4.40;;;2.88;;
27670;SDS011;15077;49.704;9.908;2023-06-14T03:45:58;3.60;;;2.53;;
27670;SDS011;15077;49.704;9.908;2023-06-14T03:48:24;4.53;;;2.70;;
27670;SDS011;15077;49.704;9.908;2023-06-14T03:50:50;4.82;;;2.53;;
27670;SDS011;15077;49.704;9.908;2023-06-14T03:53:17;2.88;;;2.58;;
27670;SDS011;15077;49.704;9.908;2023-06-14T03:55:45;3.85;;;2.67;;
27670;SDS011;15077;49.704;9.908;2023-06-14T03:58:11;3.20;;;1.90;;
27670;SDS011;15077;49.704;9.908;2023-06-14T04:00:38;2.97;;;2.50;;
27670;SDS011;15077;49.704;9.908;2023-06-14T04:03:05;3.33;;;2.50;;
27670;SDS011;15077;49.704;9.908;2023-06-14T04:05:30;2.88;;;2.40;;
27670;SDS011;15077;49.704;9.908;2023-06-14T04:07:56;4.22;;;3.15;;
27670;SDS011;15077;49.704;9.908;2023-06-14T04:10:25;3.50;;;2.53;;
27670;SDS011;15077;49.704;9.908;2023-06-14T04:12:51;3.00;;;2.70;;
27670;SDS011;15077;49.704;9.908;2023-06-14T04:15:17;3.78;;;2.50;;
27670;SDS011;15077;49.704;9.908;2023-06-14T04:17:43;3.30;;;3.00;;
27670;SDS011;15077;49.704;9.908;2023-06-14T04:20:09;2.83;;;2.28;;
27670;SDS011;15077;49.704;9.908;2023-06-14T04:22:35;3.13;;;2.33;;
27670;SDS011;15077;49.704;9.908;2023-06-14T04:25:01;4.63;;;2.90;;
27670;SDS011;15077;49.704;9.908;2023-06-14T04:27:28;3.78;;;2.55;;
27670;SDS011;15077;49.704;9.908;2023-06-14T04:29:56;4.35;;;2.83;;
27670;SDS011;15077;49.704;9.908;2023-06-14T04:32:26;4.45;;;3.28;;
27670;SDS011;15077;49.704;9.908;2023-06-14T04:34:58;4.50;;;3.20;;
27670;SDS011;15077;49.704;9.908;2023-06-14T04:37:26;4.60;;;2.90;;
27670;SDS011;15077;49.704;9.908;2023-06-14T04:39:54;3.97;;;3.35;;
27670;SDS011;15077;49.704;9.908;2023-06-14T04:42:21;3.63;;;3.30;;
27670;SDS011;15077;49.704;9.908;2023-06-14T04:44:50;4.28;;;3.67;;
27670;SDS011;15077;49.704;9.908;2023-06-14T04:47:17;5.32;;;3.85;;
27670;SDS011;15077;49.704;9.908;2023-06-14T04:49:42;5.57;;;3.22;;
27670;SDS011;15077;49.704;9.908;2023-06-14T04:52:09;3.80;;;3.17;;
27670;SDS011;15077;49.704;9.908;2023-06-14T04:54:35;3.45;;;3.08;;
27670;SDS011;15077;49.704;9.908;2023-06-14T04:57:07;4.43;;;3.90;;
27670;SDS011;15077;49.704;9.908;2023-06-14T04:59:39;4.47;;;4.00;;
27670;SDS011;15077;49.704;9.908;2023-06-14T05:02:05;6.07;;;4.40;;
27670;SDS011;15077;49.704;9.908;2023-06-14T05:04:32;6.18;;;4.07;;
27670;SDS011;15077;49.704;9.908;2023-06-14T05:06:58;4.55;;;3.47;;
27670;SDS011;15077;49.704;9.908;2023-06-14T05:09:23;4.45;;;3.90;;
27670;SDS011;15077;49.704;9.908;2023-06-14T05:11:49;4.00;;;3.63;;
27670;SDS011;15077;49.704;9.908;2023-06-14T05:14:15;4.78;;;3.53;;
27670;SDS011;15077;49.704;9.908;2023-06-14T05:16:42;5.20;;;3.60;;
27670;SDS011;15077;49.704;9.908;2023-06-14T05:19:09;8.02;;;4.95;;
27670;SDS011;15077;49.704;9.908;2023-06-14T05:21:35;4.30;;;3.70;;
27670;SDS011;15077;49.704;9.908;2023-06-14T05:24:02;5.70;;;4.50;;
27670;SDS011;15077;49.704;9.908;2023-06-14T05:26:28;6.88;;;4.40;;
27670;SDS011;15077;49.704;9.908;2023-06-14T05:28:55;5.45;;;4.45;;
27670;SDS011;15077;49.704;9.908;2023-06-14T05:31:22;5.97;;;4.35;;
27670;SDS011;15077;49.704;9.908;2023-06-14T05:33:52;5.38;;;4.68;;
27670;SDS011;15077;49.704;9.908;2023-06-14T05:36:19;4.25;;;3.55;;
27670;SDS011;15077;49.704;9.908;2023-06-14T05:38:48;5.97;;;3.88;;
27670;SDS011;15077;49.704;9.908;2023-06-14T05:41:16;5.55;;;3.53;;
27670;SDS011;15077;49.704;9.908;2023-06-14T05:43:41;8.45;;;5.40;;
27670;SDS011;15077;49.704;9.908;2023-06-14T05:46:07;6.38;;;4.40;;
27670;SDS011;15077;49.704;9.908;2023-06-14T05:48:33;6.95;;;5.38;;
27670;SDS011;15077;49.704;9.908;2023-06-14T05:50:59;7.45;;;5.07;;
27670;SDS011;15077;49.704;9.908;2023-06-14T05:53:25;7.30;;;5.07;;
27670;SDS011;15077;49.704;9.908;2023-06-14T05:55:51;7.07;;;5.88;;
27670;SDS011;15077;49.704;9.908;2023-06-14T05:58:18;6.07;;;4.72;;
27670;SDS011;15077;49.704;9.908;2023-06-14T06:00:45;6.57;;;4.70;;
27670;SDS011;15077;49.704;9.908;2023-06-14T06:03:11;5.07;;;4.57;;
27670;SDS011;15077;49.704;9.908;2023-06-14T06:05:38;7.75;;;5.72;;
27670;SDS011;15077;49.704;9.908;2023-06-14T06:08:04;6.00;;;4.93;;
27670;SDS011;15077;49.704;9.908;2023-06-14T06:10:30;7.53;;;5.38;;
27670;SDS011;15077;49.704;9.908;2023-06-14T06:12:56;6.35;;;5.75;;
27670;SDS011;15077;49.704;9.908;2023-06-14T06:15:21;5.82;;;5.22;;
27670;SDS011;15077;49.704;9.908;2023-06-14T06:17:47;6.38;;;5.65;;
27670;SDS011;15077;49.704;9.908;2023-06-14T06:20:13;7.63;;;6.03;;
27670;SDS011;15077;49.704;9.908;2023-06-14T06:22:39;7.35;;;5.72;;
27670;SDS011;15077;49.704;9.908;2023-06-14T06:25:05;10.57;;;6.18;;
27670;SDS011;15077;49.704;9.908;2023-06-14T06:27:32;6.75;;;5.63;;
27670;SDS011;15077;49.704;9.908;2023-06-14T06:29:58;7.68;;;5.93;;
27670;SDS011;15077;49.704;9.908;2023-06-14T06:32:24;8.82;;;6.55;;
27670;SDS011;15077;49.704;9.908;2023-06-14T06:34:50;6.50;;;4.55;;
27670;SDS011;15077;49.704;9.908;2023-06-14T06:37:16;6.63;;;5.88;;
27670;SDS011;15077;49.704;9.908;2023-06-14T06:39:42;9.52;;;6.18;;
27670;SDS011;15077;49.704;9.908;2023-06-14T06:42:08;9.15;;;6.38;;
27670;SDS011;15077;49.704;9.908;2023-06-14T06:44:34;7.47;;;5.65;;
27670;SDS011;15077;49.704;9.908;2023-06-14T06:47:00;7.30;;;5.68;;
27670;SDS011;15077;49.704;9.908;2023-06-14T06:49:26;7.25;;;5.53;;
27670;SDS011;15077;49.704;9.908;2023-06-14T06:52:05;8.90;;;6.32;;
27670;SDS011;15077;49.704;9.908;2023-06-14T06:54:32;7.10;;;5.65;;
27670;SDS011;15077;49.704;9.908;2023-06-14T06:56:59;6.95;;;5.35;;
27670;SDS011;15077;49.704;9.908;2023-06-14T06:59:26;6.95;;;5.50;;
27670;SDS011;15077;49.704;9.908;2023-06-14T07:01:52;7.50;;;6.00;;
27670;SDS011;15077;49.704;9.908;2023-06-14T07:04:18;6.47;;;5.85;;
27670;SDS011;15077;49.704;9.908;2023-06-14T07:06:45;6.75;;;5.82;;
27670;SDS011;15077;49.704;9.908;2023-06-14T07:09:12;6.18;;;5.55;;
27670;SDS011;15077;49.704;9.908;2023-06-14T07:11:40;8.45;;;5.60;;
27670;SDS011;15077;49.704;9.908;2023-06-14T07:14:07;7.35;;;5.20;;
27670;SDS011;15077;49.704;9.908;2023-06-14T07:16:33;8.77;;;5.72;;
27670;SDS011;15077;49.704;9.908;2023-06-14T07:18:59;7.57;;;6.05;;
27670;SDS011;15077;49.704;9.908;2023-06-14T07:21:25;7.38;;;5.60;;
27670;SDS011;15077;49.704;9.908;2023-06-14T07:23:52;9.85;;;6.13;;
27670;SDS011;15077;49.704;9.908;2023-06-14T07:26:18;7.97;;;6.30;;
27670;SDS011;15077;49.704;9.908;2023-06-14T07:28:45;6.97;;;5.75;;
27670;SDS011;15077;49.704;9.908;2023-06-14T07:31:12;5.93;;;5.13;;
27670;SDS011;15077;49.704;9.908;2023-06-14T07:33:39;6.97;;;5.68;;
27670;SDS011;15077;49.704;9.908;2023-06-14T07:36:06;8.75;;;5.50;;
27670;SDS011;15077;49.704;9.908;2023-06-14T07:38:32;6.07;;;5.47;;
27670;SDS011;15077;49.704;9.908;2023-06-14T07:40:57;6.22;;;5.63;;
27670;SDS011;15077;49.704;9.908;2023-06-14T07:43:23;7.05;;;5.95;;
27670;SDS011;15077;49.704;9.908;2023-06-14T07:45:49;6.80;;;5.07;;
27670;SDS011;15077;49.704;9.908;2023-06-14T07:48:15;6.93;;;6.22;;
27670;SDS011;15077;49.704;9.908;2023-06-14T07:50:40;6.18;;;5.38;;
27670;SDS011;15077;49.704;9.908;2023-06-14T07:53:06;6.60;;;5.28;;
27670;SDS011;15077;49.704;9.908;2023-06-14T07:55:32;10.20;;;6.30;;
27670;SDS011;15077;49.704;9.908;2023-06-14T07:58:01;6.95;;;5.38;;
27670;SDS011;15077;49.704;9.908;2023-06-14T08:00:28;7.13;;;6.20;;
27670;SDS011;15077;49.704;9.908;2023-06-14T08:02:54;6.00;;;5.40;;
27670;SDS011;15077;49.704;9.908;2023-06-14T08:05:23;6.72;;;5.72;;
27670;SDS011;15077;49.704;9.908;2023-06-14T08:07:53;15.57;;;5.72;;
27670;SDS011;15077;49.704;9.908;2023-06-14T08:10:19;6.32;;;5.40;;
27670;SDS011;15077;49.704;9.908;2023-06-14T08:12:46;6.38;;;5.78;;
27670;SDS011;15077;49.704;9.908;2023-06-14T08:15:11;6.80;;;6.10;;
27670;SDS011;15077;49.704;9.908;2023-06-14T08:17:37;5.97;;;5.35;;
27670;SDS011;15077;49.704;9.908;2023-06-14T08:20:03;6.18;;;5.55;;
27670;SDS011;15077;49.704;9.908;2023-06-14T08:22:30;7.82;;;6.13;;
27670;SDS011;15077;49.704;9.908;2023-06-14T08:24:59;6.07;;;5.30;;
27670;SDS011;15077;49.704;9.908;2023-06-14T08:27:26;6.90;;;5.88;;
27670;SDS011;15077;49.704;9.908;2023-06-14T08:29:52;7.95;;;7.07;;
27670;SDS011;15077;49.704;9.908;2023-06-14T08:32:18;6.13;;;5.03;;
27670;SDS011;15077;49.704;9.908;2023-06-14T08:34:44;6.03;;;5.40;;
27670;SDS011;15077;49.704;9.908;2023-06-14T08:37:10;7.68;;;5.95;;
27670;SDS011;15077;49.704;9.908;2023-06-14T08:39:36;8.73;;;6.05;;
27670;SDS011;15077;49.704;9.908;2023-06-14T08:42:02;8.23;;;6.55;;
27670;SDS011;15077;49.704;9.908;2023-06-14T08:44:31;7.47;;;5.65;;
27670;SDS011;15077;49.704;9.908;2023-06-14T08:46:56;7.30;;;5.72;;
27670;SDS011;15077;49.704;9.908;2023-06-14T08:49:25;6.82;;;5.72;;
27670;SDS011;15077;49.704;9.908;2023-06-14T08:51:57;7.35;;;5.45;;
27670;SDS011;15077;49.704;9.908;2023-06-14T08:54:29;7.13;;;5.32;;
27670;SDS011;15077;49.704;9.908;2023-06-14T08:56:58;5.80;;;4.78;;
27670;SDS011;15077;49.704;9.908;2023-06-14T08:59:28;8.63;;;5.40;;
27670;SDS011;15077;49.704;9.908;2023-06-14T09:01:56;9.63;;;5.32;;
27670;SDS011;15077;49.704;9.908;2023-06-14T09:04:22;5.60;;;5.03;;
27670;SDS011;15077;49.704;9.908;2023-06-14T09:06:53;6.22;;;5.10;;
27670;SDS011;15077;49.704;9.908;2023-06-14T09:09:20;5.95;;;5.28;;
27670;SDS011;15077;49.704;9.908;2023-06-14T09:11:47;9.05;;;5.40;;
27670;SDS011;15077;49.704;9.908;2023-06-14T09:14:15;5.45;;;4.70;;
27670;SDS011;15077;49.704;9.908;2023-06-14T09:16:43;7.03;;;4.93;;
27670;SDS011;15077;49.704;9.908;2023-06-14T09:19:13;6.38;;;5.22;;
27670;SDS011;15077;49.704;9.908;2023-06-14T09:21:48;6.18;;;4.65;;
27670;SDS011;15077;49.704;9.908;2023-06-14T09:24:14;6.15;;;5.25;;
27670;SDS011;15077;49.704;9.908;2023-06-14T09:26:40;5.97;;;4.75;;
27670;SDS011;15077;49.704;9.908;2023-06-14T09:29:06;7.15;;;4.60;;
27670;SDS011;15077;49.704;9.908;2023-06-14T09:31:34;7.82;;;4.65;;
27670;SDS011;15077;49.704;9.908;2023-06-14T09:34:01;5.15;;;4.65;;
27670;SDS011;15077;49.704;9.908;2023-06-14T09:36:28;6.00;;;4.22;;
27670;SDS011;15077;49.704;9.908;2023-06-14T09:39:03;10.32;;;5.20;;
27670;SDS011;15077;49.704;9.908;2023-06-14T09:41:32;5.43;;;4.68;;
27670;SDS011;15077;49.704;9.908;2023-06-14T09:44:00;5.40;;;4.65;;
27670;SDS011;15077;49.704;9.908;2023-06-14T09:46:29;4.88;;;4.15;;
27670;SDS011;15077;49.704;9.908;2023-06-14T09:48:56;8.75;;;4.90;;
27670;SDS011;15077;49.704;9.908;2023-06-14T09:51:26;6.50;;;4.40;;
27670;SDS011;15077;49.704;9.908;2023-06-14T09:54:03;5.45;;;4.63;;
27670;SDS011;15077;49.704;9.908;2023-06-14T09:56:32;6.10;;;4.70;;
27670;SDS011;15077;49.704;9.908;2023-06-14T09:59:04;5.35;;;4.47;;
27670;SDS011;15077;49.704;9.908;2023-06-14T10:01:36;4.75;;;3.75;;
27670;SDS011;15077;49.704;9.908;2023-06-14T10:04:09;5.90;;;4.47;;
27670;SDS011;15077;49.704;9.908;2023-06-14T10:06:36;4.68;;;4.10;;
27670;SDS011;15077;49.704;9.908;2023-06-14T10:09:05;6.00;;;4.57;;
27670;SDS011;15077;49.704;9.908;2023-06-14T10:11:34;6.68;;;4.47;;
27670;SDS011;15077;49.704;9.908;2023-06-14T10:14:02;4.72;;;4.15;;
27670;SDS011;15077;49.704;9.908;2023-06-14T10:16:35;4.55;;;3.50;;
27670;SDS011;15077;49.704;9.908;2023-06-14T10:22:18;4.07;;;3.67;;
27670;SDS011;15077;49.704;9.908;2023-06-14T10:24:54;5.25;;;3.88;;
27670;SDS011;15077;49.704;9.908;2023-06-14T10:27:20;6.90;;;5.00;;
27670;SDS011;15077;49.704;9.908;2023-06-14T10:32:23;4.88;;;3.30;;
27670;SDS011;15077;49.704;9.908;2023-06-14T10:34:53;5.35;;;4.47;;
27670;SDS011;15077;49.704;9.908;2023-06-14T10:37:31;4.60;;;4.13;;
27670;SDS011;15077;49.704;9.908;2023-06-14T10:39:57;5.53;;;4.22;;
27670;SDS011;15077;49.704;9.908;2023-06-14T10:42:27;5.65;;;4.15;;
27670;SDS011;15077;49.704;9.908;2023-06-14T10:44:57;7.25;;;4.20;;
27670;SDS011;15077;49.704;9.908;2023-06-14T10:47:33;5.57;;;4.38;;
27670;SDS011;15077;49.704;9.908;2023-06-14T10:52:27;8.07;;;4.53;;
27670;SDS011;15077;49.704;9.908;2023-06-14T10:54:55;9.57;;;4.28;;
27670;SDS011;15077;49.704;9.908;2023-06-14T10:57:45;5.72;;;4.30;;
27670;SDS011;15077;49.704;9.908;2023-06-14T11:00:21;4.88;;;4.38;;
27670;SDS011;15077;49.704;9.908;2023-06-14T11:10:52;4.35;;;3.63;;
27670;SDS011;15077;49.704;9.908;2023-06-14T11:13:25;5.93;;;3.88;;
27670;SDS011;15077;49.704;9.908;2023-06-14T11:15:51;5.63;;;3.65;;
27670;SDS011;15077;49.704;9.908;2023-06-14T11:18:19;6.50;;;3.42;;
27670;SDS011;15077;49.704;9.908;2023-06-14T11:20:51;3.45;;;2.92;;
27670;SDS011;15077;49.704;9.908;2023-06-14T11:23:16;3.90;;;3.50;;
27670;SDS011;15077;49.704;9.908;2023-06-14T11:25:42;5.63;;;3.80;;
27670;SDS011;15077;49.704;9.908;2023-06-14T11:28:08;6.43;;;3.70;;
27670;SDS011;15077;49.704;9.908;2023-06-14T11:30:34;4.30;;;3.65;;
27670;SDS011;15077;49.704;9.908;2023-06-14T11:33:00;4.07;;;3.30;;
27670;SDS011;15077;49.704;9.908;2023-06-14T11:35:26;4.35;;;3.13;;
27670;SDS011;15077;49.704;9.908;2023-06-14T11:37:55;3.90;;;3.38;;
27670;SDS011;15077;49.704;9.908;2023-06-14T11:40:25;4.10;;;3.15;;
27670;SDS011;15077;49.704;9.908;2023-06-14T11:43:02;4.45;;;3.30;;
27670;SDS011;15077;49.704;9.908;2023-06-14T11:45:28;4.43;;;3.25;;
27670;SDS011;15077;49.704;9.908;2023-06-14T11:47:55;3.20;;;2.88;;
27670;SDS011;15077;49.704;9.908;2023-06-14T11:50:23;4.40;;;3.22;;
27670;SDS011;15077;49.704;9.908;2023-06-14T11:52:56;6.10;;;3.30;;
27670;SDS011;15077;49.704;9.908;2023-06-14T11:55:25;5.13;;;3.78;;
27670;SDS011;15077;49.704;9.908;2023-06-14T11:57:53;3.75;;;3.38;;
27670;SDS011;15077;49.704;9.908;2023-06-14T12:00:22;3.85;;;2.92;;
27670;SDS011;15077;49.704;9.908;2023-06-14T12:02:56;4.30;;;3.10;;
27670;SDS011;15077;49.704;9.908;2023-06-14T12:05:22;4.22;;;3.40;;
27670;SDS011;15077;49.704;9.908;2023-06-14T12:07:57;6.40;;;3.38;;
27670;SDS011;15077;49.704;9.908;2023-06-14T12:10:30;3.22;;;2.92;;
27670;SDS011;15077;49.704;9.908;2023-06-14T12:13:08;3.88;;;2.92;;
27670;SDS011;15077;49.704;9.908;2023-06-14T12:15:34;4.28;;;2.90;;
27670;SDS011;15077;49.704;9.908;2023-06-14T12:18:06;4.18;;;2.83;;
27670;SDS011;15077;49.704;9.908;2023-06-14T12:20:33;6.13;;;3.08;;
27670;SDS011;15077;49.704;9.908;2023-06-14T12:23:00;5.00;;;2.97;;
27670;SDS011;15077;49.704;9.908;2023-06-14T12:25:30;2.83;;;2.55;;
27670;SDS011;15077;49.704;9.908;2023-06-14T12:28:03;2.75;;;2.25;;
27670;SDS011;15077;49.704;9.908;2023-06-14T12:30:33;3.15;;;2.83;;
27670;SDS011;15077;49.704;9.908;2023-06-14T12:33:03;3.60;;;2.78;;
27670;SDS011;15077;49.704;9.908;2023-06-14T12:35:30;2.78;;;2.40;;
27670;SDS011;15077;49.704;9.908;2023-06-14T12:37:56;2.88;;;2.42;;
27670;SDS011;15077;49.704;9.908;2023-06-14T12:40:22;3.22;;;2.92;;
27670;SDS011;15077;49.704;9.908;2023-06-14T12:42:48;4.57;;;3.17;;
27670;SDS011;15077;49.704;9.908;2023-06-14T12:45:14;4.80;;;3.25;;
27670;SDS011;15077;49.704;9.908;2023-06-14T12:47:40;4.00;;;2.88;;
27670;SDS011;15077;49.704;9.908;2023-06-14T12:50:07;5.00;;;2.78;;
27670;SDS011;15077;49.704;9.908;2023-06-14T12:52:33;5.70;;;3.30;;
27670;SDS011;15077;49.704;9.908;2023-06-14T12:55:03;3.40;;;3.10;;
27670;SDS011;15077;49.704;9.908;2023-06-14T12:57:29;3.83;;;2.80;;
27670;SDS011;15077;49.704;9.908;2023-06-14T12:59:55;3.78;;;2.40;;
27670;SDS011;15077;49.704;9.908;2023-06-14T13:02:21;3.20;;;2.72;;
27670;SDS011;15077;49.704;9.908;2023-06-14T13:04:49;3.13;;;2.55;;
27670;SDS011;15077;49.704;9.908;2023-06-14T13:07:15;3.92;;;2.95;;
27670;SDS011;15077;49.704;9.908;2023-06-14T13:09:42;5.35;;;2.97;;
27670;SDS011;15077;49.704;9.908;2023-06-14T13:12:09;4.82;;;3.30;;
27670;SDS011;15077;49.704;9.908;2023-06-14T13:14:37;2.65;;;2.40;;
27670;SDS011;15077;49.704;9.908;2023-06-14T13:17:09;3.88;;;2.75;;
27670;SDS011;15077;49.704;9.908;2023-06-14T13:19:36;3.90;;;3.03;;
27670;SDS011;15077;49.704;9.908;2023-06-14T13:22:02;3.50;;;3.20;;
27670;SDS011;15077;49.704;9.908;2023-06-14T13:24:28;2.50;;;2.22;;
27670;SDS011;15077;49.704;9.908;2023-06-14T13:26:55;3.20;;;2.50;;
27670;SDS011;15077;49.704;9.908;2023-06-14T13:29:22;3.42;;;2.85;;
27670;SDS011;15077;49.704;9.908;2023-06-14T13:31:49;5.00;;;3.03;;
27670;SDS011;15077;49.704;9.908;2023-06-14T13:34:15;8.02;;;3.17;;
27670;SDS011;15077;49.704;9.908;2023-06-14T13:36:41;7.20;;;3.30;;
27670;SDS011;15077;49.704;9.908;2023-06-14T13:39:07;3.70;;;2.95;;
27670;SDS011;15077;49.704;9.908;2023-06-14T13:41:33;2.40;;;1.95;;
27670;SDS011;15077;49.704;9.908;2023-06-14T13:44:00;3.03;;;2.30;;
27670;SDS011;15077;49.704;9.908;2023-06-14T13:46:28;3.72;;;2.40;;
27670;SDS011;15077;49.704;9.908;2023-06-14T13:48:54;3.08;;;2.50;;
27670;SDS011;15077;49.704;9.908;2023-06-14T13:51:20;4.22;;;2.22;;
27670;SDS011;15077;49.704;9.908;2023-06-14T13:53:47;4.72;;;2.17;;
27670;SDS011;15077;49.704;9.908;2023-06-14T13:56:14;3.05;;;2.28;;
27670;SDS011;15077;49.704;9.908;2023-06-14T13:58:40;7.93;;;2.63;;
27670;SDS011;15077;49.704;9.908;2023-06-14T14:01:06;5.28;;;2.90;;
27670;SDS011;15077;49.704;9.908;2023-06-14T14:03:33;5.80;;;2.75;;
27670;SDS011;15077;49.704;9.908;2023-06-14T14:06:00;2.80;;;2.50;;
27670;SDS011;15077;49.704;9.908;2023-06-14T14:08:27;3.58;;;2.38;;
27670;SDS011;15077;49.704;9.908;2023-06-14T14:10:53;3.42;;;2.45;;
27670;SDS011;15077;49.704;9.908;2023-06-14T14:13:19;5.57;;;2.15;;
27670;SDS011;15077;49.704;9.908;2023-06-14T14:15:46;4.22;;;2.90;;
27670;SDS011;15077;49.704;9.908;2023-06-14T14:18:11;3.72;;;2.53;;
27670;SDS011;15077;49.704;9.908;2023-06-14T14:20:37;3.17;;;2.30;;
27670;SDS011;15077;49.704;9.908;2023-06-14T14:23:03;2.33;;;2.08;;
27670;SDS011;15077;49.704;9.908;2023-06-14T14:25:29;2.67;;;2.20;;
27670;SDS011;15077;49.704;9.908;2023-06-14T14:27:55;3.90;;;2.25;;
27670;SDS011;15077;49.704;9.908;2023-06-14T14:30:21;2.55;;;2.20;;
27670;SDS011;15077;49.704;9.908;2023-06-14T14:32:48;4.35;;;2.80;;
27670;SDS011;15077;49.704;9.908;2023-06-14T14:35:16;3.30;;;2.78;;
27670;SDS011;15077;49.704;9.908;2023-06-14T14:37:42;3.45;;;2.55;;
27670;SDS011;15077;49.704;9.908;2023-06-14T14:40:09;3.00;;;2.60;;
27670;SDS011;15077;49.704;9.908;2023-06-14T14:42:36;3.78;;;2.45;;
27670;SDS011;15077;49.704;9.908;2023-06-14T14:45:02;2.63;;;2.30;;
27670;SDS011;15077;49.704;9.908;2023-06-14T14:47:28;5.00;;;2.65;;
27670;SDS011;15077;49.704;9.908;2023-06-14T14:49:54;2.90;;;2.60;;
27670;SDS011;15077;49.704;9.908;2023-06-14T14:52:20;3.35;;;2.28;;
27670;SDS011;15077;49.704;9.908;2023-06-14T14:54:46;6.00;;;2.90;;
27670;SDS011;15077;49.704;9.908;2023-06-14T14:57:12;3.00;;;2.40;;
27670;SDS011;15077;49.704;9.908;2023-06-14T14:59:37;2.97;;;1.95;;
27670;SDS011;15077;49.704;9.908;2023-06-14T15:02:03;3.33;;;2.67;;
27670;SDS011;15077;49.704;9.908;2023-06-14T15:04:29;3.30;;;2.50;;
27670;SDS011;15077;49.704;9.908;2023-06-14T15:06:55;3.30;;;2.50;;